Time,TemperatureF,DewpointF,PressureIn,WindDirection,WindDirectionDegrees,WindSpeedMPH,WindSpeedGustMPH,Humidity,HourlyPrecipIn,Conditions,Clouds,dailyrainin,SoftwareType,DateUTC
2013-01-14 00:00:00,3.4,-2.5,30.42,NNW,327,0.0,0.0,76,0.00,,,0.00,Wunderground v.1.15,2013-01-14 07:00:00,
2013-01-14 00:10:00,2.6,-3.0,30.41,NNW,327,0.0,0.0,77,0.00,,,0.00,Wunderground v.1.15,2013-01-14 07:10:00,
2013-01-14 00:15:00,2.2,-3.4,30.41,NNW,327,0.0,0.0,77,0.00,,,0.00,Wunderground v.1.15,2013-01-14 07:15:00,
2013-01-14 00:20:00,1.8,-3.5,30.42,NNW,327,0.0,0.0,78,0.00,,,0.00,Wunderground v.1.15,2013-01-14 07:20:00,
2013-01-14 00:30:00,1.0,-4.5,30.41,NNW,327,0.0,0.0,77,0.00,,,0.00,Wunderground v.1.15,2013-01-14 07:30:00,
2013-01-14 00:35:00,0.8,-4.2,30.42,NNW,327,0.0,0.0,79,0.00,,,0.00,Wunderground v.1.15,2013-01-14 07:35:00,
2013-01-14 00:40:00,0.6,-4.4,30.42,NNW,327,0.0,0.0,79,0.00,,,0.00,Wunderground v.1.15,2013-01-14 07:40:00,
2013-01-14 00:45:00,0.4,-4.8,30.42,NNW,327,0.0,0.0,78,0.00,,,0.00,Wunderground v.1.15,2013-01-14 07:45:00,
2013-01-14 00:50:00,0.1,-4.9,30.42,NNW,327,0.0,0.0,79,0.00,,,0.00,Wunderground v.1.15,2013-01-14 07:50:00,
2013-01-14 00:55:00,-0.1,-5.1,30.42,NNW,327,0.0,0.0,79,0.00,,,0.00,Wunderground v.1.15,2013-01-14 07:55:00,
2013-01-14 01:05:00,0.0,-4.4,30.42,NNW,327,0.0,2.0,81,0.00,,,0.00,Wunderground v.1.15,2013-01-14 08:05:00,
2013-01-14 01:10:00,0.0,-4.7,30.42,NNW,327,0.0,2.0,80,0.00,,,0.00,Wunderground v.1.15,2013-01-14 08:10:00,
2013-01-14 01:15:00,-0.2,-5.4,30.42,NNW,327,0.0,0.0,78,0.00,,,0.00,Wunderground v.1.15,2013-01-14 08:15:00,
2013-01-14 01:20:00,-0.4,-5.6,30.42,NNW,327,0.0,0.0,78,0.00,,,0.00,Wunderground v.1.15,2013-01-14 08:20:00,
2013-01-14 01:25:00,-0.5,-5.5,30.42,NNW,327,0.0,0.0,79,0.00,,,0.00,Wunderground v.1.15,2013-01-14 08:25:00,
2013-01-14 01:30:00,-0.6,-5.3,30.42,NNW,327,0.0,0.0,80,0.00,,,0.00,Wunderground v.1.15,2013-01-14 08:30:00,
2013-01-14 01:35:00,-0.7,-5.7,30.42,NNW,327,0.0,0.0,79,0.00,,,0.00,Wunderground v.1.15,2013-01-14 08:35:00,
2013-01-14 01:40:00,-0.7,-5.4,30.42,NNW,327,0.0,0.0,80,0.00,,,0.00,Wunderground v.1.15,2013-01-14 08:40:00,
2013-01-14 01:45:00,-0.7,-5.4,30.42,NNW,327,0.0,0.0,80,0.00,,,0.00,Wunderground v.1.15,2013-01-14 08:45:00,
2013-01-14 01:50:00,-0.7,-5.1,30.42,NNW,327,0.0,0.0,81,0.00,,,0.00,Wunderground v.1.15,2013-01-14 08:50:00,
2013-01-14 01:55:00,-0.5,-4.7,30.42,NNW,327,0.0,0.0,82,0.00,,,0.00,Wunderground v.1.15,2013-01-14 08:55:00,
2013-01-14 02:00:00,-0.4,-4.8,30.42,NNW,327,0.0,0.0,81,0.00,,,0.00,Wunderground v.1.15,2013-01-14 09:00:00,
2013-01-14 02:05:00,-0.3,-4.7,30.42,NNW,327,0.0,0.0,81,0.00,,,0.00,Wunderground v.1.15,2013-01-14 09:05:00,
2013-01-14 02:10:00,0.0,-4.2,30.42,NNW,327,0.0,0.0,82,0.00,,,0.00,Wunderground v.1.15,2013-01-14 09:10:00,
2013-01-14 02:15:00,0.2,-4.3,30.42,NNW,327,0.0,0.0,81,0.00,,,0.00,Wunderground v.1.15,2013-01-14 09:15:00,
2013-01-14 02:20:00,0.2,-4.5,30.43,NNW,327,0.0,0.0,80,0.00,,,0.00,Wunderground v.1.15,2013-01-14 09:20:00,
2013-01-14 02:30:00,0.0,-5.0,30.43,NNW,327,0.0,0.0,79,0.00,,,0.00,Wunderground v.1.15,2013-01-14 09:30:00,
2013-01-14 02:35:00,-0.1,-5.1,30.43,NNW,327,0.0,0.0,79,0.00,,,0.00,Wunderground v.1.15,2013-01-14 09:35:00,
2013-01-14 02:40:00,-0.2,-5.2,30.44,NNW,327,0.0,0.0,79,0.00,,,0.00,Wunderground v.1.15,2013-01-14 09:40:00,
2013-01-14 02:50:00,-0.1,-4.5,30.44,NNW,327,0.0,0.0,81,0.00,,,0.00,Wunderground v.1.15,2013-01-14 09:50:00,
2013-01-14 02:55:00,0.3,-3.6,30.44,NNW,327,0.0,0.0,83,0.00,,,0.00,Wunderground v.1.15,2013-01-14 09:55:00,
2013-01-14 03:00:00,0.5,-4.5,30.45,NNW,327,0.0,1.0,79,0.00,,,0.00,Wunderground v.1.15,2013-01-14 10:00:00,
2013-01-14 03:05:00,0.3,-4.9,30.44,NNW,327,0.0,1.0,78,0.00,,,0.00,Wunderground v.1.15,2013-01-14 10:05:00,
2013-01-14 03:10:00,0.1,-5.1,30.44,NNW,327,0.0,1.0,78,0.00,,,0.00,Wunderground v.1.15,2013-01-14 10:10:00,
2013-01-14 03:20:00,-0.4,-5.6,30.45,NNW,327,0.0,0.0,78,0.00,,,0.00,Wunderground v.1.15,2013-01-14 10:20:00,
2013-01-14 03:25:00,-0.5,-5.7,30.45,NNW,327,0.0,0.0,78,0.00,,,0.00,Wunderground v.1.15,2013-01-14 10:25:00,
2013-01-14 03:30:00,-0.7,-5.7,30.45,NNW,327,0.0,0.0,79,0.00,,,0.00,Wunderground v.1.15,2013-01-14 10:30:00,
2013-01-14 03:35:00,-0.7,-5.7,30.45,NNW,327,0.0,0.0,79,0.00,,,0.00,Wunderground v.1.15,2013-01-14 10:35:00,
2013-01-14 03:40:00,-0.5,-5.2,30.45,NNW,327,0.0,0.0,80,0.00,,,0.00,Wunderground v.1.15,2013-01-14 10:40:00,
2013-01-14 03:50:00,-0.4,-4.8,30.45,NNW,327,0.0,0.0,81,0.00,,,0.00,Wunderground v.1.15,2013-01-14 10:50:00,
2013-01-14 03:55:00,-0.4,-4.8,30.45,NNW,327,0.0,0.0,81,0.00,,,0.00,Wunderground v.1.15,2013-01-14 10:55:00,
2013-01-14 04:05:00,-0.4,-5.1,30.45,NNW,327,0.0,1.0,80,0.00,,,0.00,Wunderground v.1.15,2013-01-14 11:05:00,
2013-01-14 04:10:00,-0.3,-5.0,30.45,NNW,327,0.0,1.0,80,0.00,,,0.00,Wunderground v.1.15,2013-01-14 11:10:00,
2013-01-14 04:20:00,-0.3,-5.3,30.45,NNW,327,0.0,0.0,79,0.00,,,0.00,Wunderground v.1.15,2013-01-14 11:20:00,
2013-01-14 04:25:00,-0.5,-5.5,30.45,NNW,327,0.0,0.0,79,0.00,,,0.00,Wunderground v.1.15,2013-01-14 11:25:00,
2013-01-14 04:30:00,-0.4,-4.8,30.46,NNW,327,0.0,0.0,81,0.00,,,0.00,Wunderground v.1.15,2013-01-14 11:30:00,
2013-01-14 04:35:00,-0.1,-4.5,30.46,NNW,327,0.0,0.0,81,0.00,,,0.00,Wunderground v.1.15,2013-01-14 11:35:00,
2013-01-14 04:40:00,0.1,-4.6,30.46,NNW,327,0.0,0.0,80,0.00,,,0.00,Wunderground v.1.15,2013-01-14 11:40:00,
2013-01-14 04:45:00,0.2,-4.3,30.46,NNW,327,0.0,0.0,81,0.00,,,0.00,Wunderground v.1.15,2013-01-14 11:45:00,
2013-01-14 04:50:00,0.4,-4.1,30.46,NNW,327,0.0,0.0,81,0.00,,,0.00,Wunderground v.1.15,2013-01-14 11:50:00,
2013-01-14 04:55:00,0.4,-4.6,30.46,NNW,327,0.0,0.0,79,0.00,,,0.00,Wunderground v.1.15,2013-01-14 11:55:00,
2013-01-14 05:05:00,0.2,-5.0,30.46,NNW,327,0.0,1.0,78,0.00,,,0.00,Wunderground v.1.15,2013-01-14 12:05:00,
2013-01-14 05:10:00,0.0,-5.2,30.46,NNW,327,0.0,1.0,78,0.00,,,0.00,Wunderground v.1.15,2013-01-14 12:10:00,
2013-01-14 05:15:00,0.0,-5.2,30.46,NNW,327,0.0,0.0,78,0.00,,,0.00,Wunderground v.1.15,2013-01-14 12:15:00,
2013-01-14 05:20:00,-0.1,-5.1,30.46,NNW,327,0.0,0.0,79,0.00,,,0.00,Wunderground v.1.15,2013-01-14 12:20:00,
2013-01-14 05:30:00,-0.3,-5.3,30.46,NNW,327,0.0,0.0,79,0.00,,,0.00,Wunderground v.1.15,2013-01-14 12:30:00,
2013-01-14 05:35:00,-0.4,-5.6,30.46,NNW,327,0.0,0.0,78,0.00,,,0.00,Wunderground v.1.15,2013-01-14 12:35:00,
2013-01-14 05:40:00,-0.4,-5.4,30.46,NNW,327,0.0,0.0,79,0.00,,,0.00,Wunderground v.1.15,2013-01-14 12:40:00,
2013-01-14 05:45:00,-0.4,-5.4,30.47,NNW,327,0.0,0.0,79,0.00,,,0.00,Wunderground v.1.15,2013-01-14 12:45:00,
2013-01-14 05:50:00,-0.5,-5.7,30.47,NNW,327,0.0,0.0,78,0.00,,,0.00,Wunderground v.1.15,2013-01-14 12:50:00,
2013-01-14 05:55:00,-0.6,-5.6,30.47,NNW,327,0.0,0.0,79,0.00,,,0.00,Wunderground v.1.15,2013-01-14 12:55:00,
2013-01-14 06:05:00,-0.8,-6.0,30.48,NNW,327,0.0,0.0,78,0.00,,,0.00,Wunderground v.1.15,2013-01-14 13:05:00,
2013-01-14 06:10:00,-0.9,-6.4,30.49,NNW,327,0.0,0.0,77,0.00,,,0.00,Wunderground v.1.15,2013-01-14 13:10:00,
2013-01-14 06:15:00,-1.3,-6.8,30.48,NNW,327,0.0,1.0,77,0.00,,,0.00,Wunderground v.1.15,2013-01-14 13:15:00,
2013-01-14 06:20:00,-1.6,-7.1,30.49,NNW,327,0.0,1.0,77,0.00,,,0.00,Wunderground v.1.15,2013-01-14 13:20:00,
2013-01-14 06:25:00,-1.7,-7.2,30.49,NNW,327,0.0,0.0,77,0.00,,,0.00,Wunderground v.1.15,2013-01-14 13:25:00,
2013-01-14 06:30:00,-2.3,-8.0,30.49,NNW,327,0.0,0.0,76,0.00,,,0.00,Wunderground v.1.15,2013-01-14 13:30:00,
2013-01-14 06:35:00,-2.6,-8.6,30.49,NNW,327,0.0,0.0,75,0.00,,,0.00,Wunderground v.1.15,2013-01-14 13:35:00,
2013-01-14 06:40:00,-3.1,-9.1,30.50,NNW,327,0.0,0.0,75,0.00,,,0.00,Wunderground v.1.15,2013-01-14 13:40:00,
2013-01-14 06:45:00,-3.4,-9.3,30.50,NNW,327,0.0,0.0,75,0.00,,,0.00,Wunderground v.1.15,2013-01-14 13:45:00,
2013-01-14 06:50:00,-3.7,-9.1,30.50,NNW,327,0.0,0.0,77,0.00,,,0.00,Wunderground v.1.15,2013-01-14 13:50:00,
2013-01-14 06:55:00,-4.0,-9.9,30.50,NNW,327,0.0,0.0,75,0.00,,,0.00,Wunderground v.1.15,2013-01-14 13:55:00,
2013-01-14 07:05:00,-4.6,-9.5,30.50,NNW,327,0.0,1.0,79,0.00,,,0.00,Wunderground v.1.15,2013-01-14 14:05:00,
2013-01-14 07:10:00,-2.1,-5.3,30.50,NNW,327,0.0,1.0,86,0.00,,,0.00,Wunderground v.1.15,2013-01-14 14:10:00,
2013-01-14 07:20:00,-2.3,-7.7,30.51,NNW,327,0.0,0.0,77,0.00,,,0.00,Wunderground v.1.15,2013-01-14 14:20:00,
2013-01-14 07:25:00,-2.8,-8.5,30.51,NNW,327,0.0,0.0,76,0.00,,,0.00,Wunderground v.1.15,2013-01-14 14:25:00,
2013-01-14 07:30:00,-3.3,-8.7,30.51,NNW,327,0.0,0.0,77,0.00,,,0.00,Wunderground v.1.15,2013-01-14 14:30:00,
2013-01-14 07:35:00,-3.4,-8.3,30.51,NNW,327,0.0,1.0,79,0.00,,,0.00,Wunderground v.1.15,2013-01-14 14:35:00,
2013-01-14 07:40:00,-3.4,-8.3,30.51,NNW,327,0.0,1.0,79,0.00,,,0.00,Wunderground v.1.15,2013-01-14 14:40:00,
2013-01-14 07:50:00,-3.4,-8.3,30.52,NNW,327,0.0,0.0,79,0.00,,,0.00,Wunderground v.1.15,2013-01-14 14:50:00,
2013-01-14 07:55:00,-3.4,-8.5,30.52,NNW,327,0.0,0.0,78,0.00,,,0.00,Wunderground v.1.15,2013-01-14 14:55:00,
2013-01-14 08:05:00,-3.4,-8.3,30.52,NNW,327,0.0,1.0,79,0.00,,,0.00,Wunderground v.1.15,2013-01-14 15:05:00,
2013-01-14 08:10:00,-3.2,-8.1,30.52,NNW,327,0.0,1.0,79,0.00,,,0.00,Wunderground v.1.15,2013-01-14 15:10:00,
2013-01-14 08:20:00,-2.8,-7.4,30.52,NNW,327,0.0,0.0,80,0.00,,,0.00,Wunderground v.1.15,2013-01-14 15:20:00,
2013-01-14 08:25:00,-2.5,-7.1,30.52,NNW,327,0.0,0.0,80,0.00,,,0.00,Wunderground v.1.15,2013-01-14 15:25:00,
2013-01-14 08:30:00,-2.0,-6.7,30.53,NNW,327,0.0,0.0,80,0.00,,,0.00,Wunderground v.1.15,2013-01-14 15:30:00,
2013-01-14 08:35:00,-1.6,-6.3,30.53,NNW,327,0.0,0.0,80,0.00,,,0.00,Wunderground v.1.15,2013-01-14 15:35:00,
2013-01-14 08:40:00,-1.0,-5.9,30.53,NNW,327,0.0,0.0,79,0.00,,,0.00,Wunderground v.1.15,2013-01-14 15:40:00,
2013-01-14 08:50:00,0.7,-4.3,30.53,NNW,327,0.0,1.0,79,0.00,,,0.00,Wunderground v.1.15,2013-01-14 15:50:00,
2013-01-14 09:05:00,2.8,-4.2,30.53,NNW,327,0.0,2.0,72,0.00,,,0.00,Wunderground v.1.15,2013-01-14 16:05:00,
2013-01-14 09:10:00,2.7,-4.6,30.53,NNW,327,1.0,2.0,71,0.00,,,0.00,Wunderground v.1.15,2013-01-14 16:10:00,
2013-01-14 09:15:00,2.8,-4.8,30.52,NNW,327,1.0,1.0,70,0.00,,,0.00,Wunderground v.1.15,2013-01-14 16:15:00,
2013-01-14 09:20:00,2.9,-5.3,30.53,NNW,327,1.0,1.0,68,0.00,,,0.00,Wunderground v.1.15,2013-01-14 16:20:00,
2013-01-14 09:25:00,2.9,-5.3,30.52,NNW,327,1.0,1.0,68,0.00,,,0.00,Wunderground v.1.15,2013-01-14 16:25:00,
2013-01-14 09:30:00,3.0,-5.2,30.53,NNW,327,0.0,1.0,68,0.00,,,0.00,Wunderground v.1.15,2013-01-14 16:30:00,
2013-01-14 09:40:00,2.9,-4.7,30.52,NNW,327,0.0,0.0,70,0.00,,,0.00,Wunderground v.1.15,2013-01-14 16:40:00,
2013-01-14 09:45:00,3.2,-4.4,30.52,NNW,327,0.0,0.0,70,0.00,,,0.00,Wunderground v.1.15,2013-01-14 16:45:00,
2013-01-14 09:50:00,3.9,-4.3,30.52,NNW,327,0.0,0.0,68,0.00,,,0.00,Wunderground v.1.15,2013-01-14 16:50:00,
2013-01-14 09:55:00,4.4,-3.8,30.52,NNW,327,0.0,2.0,68,0.00,,,0.00,Wunderground v.1.15,2013-01-14 16:55:00,
2013-01-14 10:00:00,4.9,-3.4,30.52,NNW,327,0.0,0.0,68,0.00,,,0.00,Wunderground v.1.15,2013-01-14 17:00:00,
2013-01-14 10:05:00,5.4,-2.9,30.52,NNW,327,0.0,3.0,68,0.00,,,0.00,Wunderground v.1.15,2013-01-14 17:05:00,
2013-01-14 10:10:00,6.2,-2.7,30.52,NNW,327,0.0,0.0,66,0.00,,,0.00,Wunderground v.1.15,2013-01-14 17:10:00,
2013-01-14 10:15:00,6.4,-2.9,30.51,NNW,327,1.0,1.0,65,0.00,,,0.00,Wunderground v.1.15,2013-01-14 17:15:00,
2013-01-14 10:20:00,6.6,-3.0,30.51,NNW,327,1.0,1.0,64,0.00,,,0.00,Wunderground v.1.15,2013-01-14 17:20:00,
2013-01-14 10:25:00,6.6,-3.3,30.50,NNW,327,2.0,2.0,63,0.00,,,0.00,Wunderground v.1.15,2013-01-14 17:25:00,
2013-01-14 10:30:00,6.5,-3.1,30.50,NNW,327,1.0,1.0,64,0.00,,,0.00,Wunderground v.1.15,2013-01-14 17:30:00,
2013-01-14 10:35:00,6.9,-1.8,30.50,NNW,327,1.0,1.0,67,0.00,,,0.00,Wunderground v.1.15,2013-01-14 17:35:00,
2013-01-14 10:40:00,8.0,-0.7,30.50,NNW,327,0.0,1.0,67,0.00,,,0.00,Wunderground v.1.15,2013-01-14 17:40:00,
2013-01-14 10:45:00,9.4,1.0,30.50,NNW,327,0.0,1.0,68,0.00,,,0.00,Wunderground v.1.15,2013-01-14 17:45:00,
2013-01-14 10:50:00,10.5,1.0,30.50,NNW,327,0.0,0.0,65,0.00,,,0.00,Wunderground v.1.15,2013-01-14 17:50:00,
2013-01-14 10:55:00,10.8,-1.1,30.49,NNW,327,0.0,0.0,58,0.00,,,0.00,Wunderground v.1.15,2013-01-14 17:55:00,
2013-01-14 11:00:00,11.1,0.9,30.49,NNW,327,0.0,0.0,63,0.00,,,0.00,Wunderground v.1.15,2013-01-14 18:00:00,
2013-01-14 11:05:00,11.2,0.7,30.48,NNW,327,0.0,3.0,62,0.00,,,0.00,Wunderground v.1.15,2013-01-14 18:05:00,
2013-01-14 11:10:00,10.9,0.4,30.48,NNW,327,1.0,1.0,62,0.00,,,0.00,Wunderground v.1.15,2013-01-14 18:10:00,
2013-01-14 11:15:00,11.2,0.4,30.47,NNW,327,1.0,1.0,61,0.00,,,0.00,Wunderground v.1.15,2013-01-14 18:15:00,
2013-01-14 11:20:00,11.8,0.2,30.47,NNW,327,1.0,2.0,59,0.00,,,0.00,Wunderground v.1.15,2013-01-14 18:20:00,
2013-01-14 11:25:00,11.8,0.9,30.47,NNW,327,1.0,2.0,61,0.00,,,0.00,Wunderground v.1.15,2013-01-14 18:25:00,
2013-01-14 11:30:00,12.8,1.9,30.46,NNW,327,1.0,1.0,61,0.00,,,0.00,Wunderground v.1.15,2013-01-14 18:30:00,
2013-01-14 11:35:00,13.7,2.4,30.46,NNW,327,1.0,3.0,60,0.00,,,0.00,Wunderground v.1.15,2013-01-14 18:35:00,
2013-01-14 11:40:00,13.9,1.1,30.46,NW,325,2.0,2.0,56,0.00,,,0.00,Wunderground v.1.15,2013-01-14 18:40:00,
2013-01-14 11:45:00,13.8,1.4,30.46,NW,323,2.0,4.0,57,0.00,,,0.00,Wunderground v.1.15,2013-01-14 18:45:00,
2013-01-14 11:50:00,14.3,1.1,30.45,NW,314,2.0,2.0,55,0.00,,,0.00,Wunderground v.1.15,2013-01-14 18:50:00,
2013-01-14 11:55:00,14.6,0.9,30.45,NW,311,2.0,2.0,54,0.00,,,0.00,Wunderground v.1.15,2013-01-14 18:55:00,
2013-01-14 12:00:00,15.0,0.5,30.44,NW,309,1.0,1.0,52,0.00,,,0.00,Wunderground v.1.15,2013-01-14 19:00:00,
2013-01-14 12:05:00,15.2,1.5,30.44,NW,309,1.0,4.0,54,0.00,,,0.00,Wunderground v.1.15,2013-01-14 19:05:00,
2013-01-14 12:10:00,14.8,0.3,30.43,WNW,303,1.0,1.0,52,0.00,,,0.00,Wunderground v.1.15,2013-01-14 19:10:00,
2013-01-14 12:15:00,15.0,2.1,30.43,WNW,298,2.0,2.0,56,0.00,,,0.00,Wunderground v.1.15,2013-01-14 19:15:00,
2013-01-14 12:20:00,15.7,1.2,30.43,WNW,294,2.0,3.0,52,0.00,,,0.00,Wunderground v.1.15,2013-01-14 19:20:00,
2013-01-14 12:25:00,16.0,1.0,30.43,WNW,294,2.0,3.0,51,0.00,,,0.00,Wunderground v.1.15,2013-01-14 19:25:00,
2013-01-14 12:30:00,16.5,1.5,30.42,NW,322,2.0,2.0,51,0.00,,,0.00,Wunderground v.1.15,2013-01-14 19:30:00,
2013-01-14 12:35:00,16.5,1.1,30.43,NW,320,2.0,7.0,50,0.00,,,0.00,Wunderground v.1.15,2013-01-14 19:35:00,
2013-01-14 12:40:00,16.3,0.5,30.42,NW,314,2.0,2.0,49,0.00,,,0.00,Wunderground v.1.15,2013-01-14 19:40:00,
2013-01-14 12:45:00,16.5,1.1,30.42,NW,311,2.0,2.0,50,0.00,,,0.00,Wunderground v.1.15,2013-01-14 19:45:00,
2013-01-14 12:50:00,16.7,0.4,30.42,NW,314,2.0,3.0,48,0.00,,,0.00,Wunderground v.1.15,2013-01-14 19:50:00,
2013-01-14 12:55:00,16.8,0.9,30.42,NW,305,2.0,4.0,49,0.00,,,0.00,Wunderground v.1.15,2013-01-14 19:55:00,
2013-01-14 13:00:00,16.8,0.0,30.42,WNW,296,2.0,2.0,47,0.00,,,0.00,Wunderground v.1.15,2013-01-14 20:00:00,
2013-01-14 13:05:00,16.4,-0.3,30.42,WNW,291,1.0,9.0,47,0.00,,,0.00,Wunderground v.1.15,2013-01-14 20:05:00,
2013-01-14 13:10:00,15.9,-0.4,30.42,WNW,285,2.0,2.0,48,0.00,,,0.00,Wunderground v.1.15,2013-01-14 20:10:00,
2013-01-14 13:15:00,15.7,-0.1,30.41,West,274,2.0,2.0,49,0.00,,,0.00,Wunderground v.1.15,2013-01-14 20:15:00,
2013-01-14 13:20:00,16.1,0.3,30.42,West,277,1.0,2.0,49,0.00,,,0.00,Wunderground v.1.15,2013-01-14 20:20:00,
2013-01-14 13:30:00,16.8,0.0,30.42,West,281,2.0,2.0,47,0.00,,,0.00,Wunderground v.1.15,2013-01-14 20:30:00,
2013-01-14 13:35:00,16.6,0.3,30.42,WNW,288,2.0,3.0,48,0.00,,,0.00,Wunderground v.1.15,2013-01-14 20:35:00,
2013-01-14 13:40:00,16.8,0.0,30.42,NW,309,2.0,2.0,47,0.00,,,0.00,Wunderground v.1.15,2013-01-14 20:40:00,
2013-01-14 13:45:00,17.4,0.1,30.42,WNW,299,2.0,3.0,46,0.00,,,0.00,Wunderground v.1.15,2013-01-14 20:45:00,
2013-01-14 13:50:00,17.9,1.0,30.42,NW,306,2.0,2.0,47,0.00,,,0.00,Wunderground v.1.15,2013-01-14 20:50:00,
2013-01-14 13:55:00,18.2,0.4,30.42,NW,306,2.0,2.0,45,0.00,,,0.00,Wunderground v.1.15,2013-01-14 20:55:00,
2013-01-14 14:01:00,18.5,1.1,30.43,WNW,303,2.0,2.0,46,0.00,,,0.00,Wunderground v.1.15,2013-01-14 21:01:00,
2013-01-14 14:10:00,19.0,-0.4,30.43,NW,311,2.0,8.0,42,0.00,,,0.00,Wunderground v.1.15,2013-01-14 21:10:00,
2013-01-14 14:20:00,19.5,0.6,30.43,WNW,290,2.0,4.0,43,0.00,,,0.00,Wunderground v.1.15,2013-01-14 21:20:00,
2013-01-14 14:25:00,19.5,-0.4,30.43,WNW,297,2.0,2.0,41,0.00,,,0.00,Wunderground v.1.15,2013-01-14 21:25:00,
2013-01-14 14:30:00,19.3,-0.6,30.43,NW,321,3.0,3.0,41,0.00,,,0.00,Wunderground v.1.15,2013-01-14 21:30:00,
2013-01-14 14:40:00,19.4,-1.0,30.43,WNW,300,2.0,3.0,40,0.00,,,0.00,Wunderground v.1.15,2013-01-14 21:40:00,
2013-01-14 14:45:00,19.7,-0.8,30.43,WNW,299,1.0,1.0,40,0.00,,,0.00,Wunderground v.1.15,2013-01-14 21:45:00,
2013-01-14 14:50:00,20.2,-0.3,30.44,WNW,292,1.0,3.0,40,0.00,,,0.00,Wunderground v.1.15,2013-01-14 21:50:00,
2013-01-14 14:55:00,19.8,-1.2,30.44,WNW,286,2.0,7.0,39,0.00,,,0.00,Wunderground v.1.15,2013-01-14 21:55:00,
2013-01-14 15:05:00,18.8,-1.1,30.44,WNW,288,2.0,8.0,41,0.00,,,0.00,Wunderground v.1.15,2013-01-14 22:05:00,
2013-01-14 15:10:00,18.7,-0.6,30.44,WNW,287,2.0,8.0,42,0.00,,,0.00,Wunderground v.1.15,2013-01-14 22:10:00,
2013-01-14 15:15:00,18.8,-0.5,30.45,WNW,300,2.0,3.0,42,0.00,,,0.00,Wunderground v.1.15,2013-01-14 22:15:00,
2013-01-14 15:20:00,18.4,-1.9,30.45,West,281,3.0,3.0,40,0.00,,,0.00,Wunderground v.1.15,2013-01-14 22:20:00,
2013-01-14 15:25:00,18.2,-1.6,30.46,West,277,2.0,5.0,41,0.00,,,0.00,Wunderground v.1.15,2013-01-14 22:25:00,
2013-01-14 15:30:00,18.2,-1.1,30.46,West,279,2.0,5.0,42,0.00,,,0.00,Wunderground v.1.15,2013-01-14 22:30:00,
2013-01-14 15:35:00,18.4,-1.9,30.46,WNW,285,2.0,5.0,40,0.00,,,0.00,Wunderground v.1.15,2013-01-14 22:35:00,
2013-01-14 15:40:00,18.2,-2.7,30.46,WNW,282,1.0,5.0,39,0.00,,,0.00,Wunderground v.1.15,2013-01-14 22:40:00,
2013-01-14 15:50:00,16.9,-2.3,30.47,WNW,288,2.0,2.0,42,0.00,,,0.00,Wunderground v.1.15,2013-01-14 22:50:00,
2013-01-14 15:55:00,16.3,-2.8,30.47,WNW,299,2.0,2.0,42,0.00,,,0.00,Wunderground v.1.15,2013-01-14 22:55:00,
2013-01-14 16:00:00,14.9,-4.1,30.48,NNW,339,3.0,5.0,42,0.00,,,0.00,Wunderground v.1.15,2013-01-14 23:00:00,
2013-01-14 16:05:00,13.6,-4.3,30.48,North,355,4.0,7.0,44,0.00,,,0.00,Wunderground v.1.15,2013-01-14 23:05:00,
2013-01-14 16:10:00,12.6,-4.8,30.48,North,355,3.0,3.0,45,0.00,,,0.00,Wunderground v.1.15,2013-01-14 23:10:00,
2013-01-14 16:20:00,11.7,-4.2,30.48,North,349,2.0,2.0,48,0.00,,,0.00,Wunderground v.1.15,2013-01-14 23:20:00,
2013-01-14 16:25:00,11.5,-4.4,30.49,NNW,348,1.0,4.0,48,0.00,,,0.00,Wunderground v.1.15,2013-01-14 23:25:00,
2013-01-14 16:30:00,11.1,-4.4,30.49,North,349,2.0,2.0,49,0.00,,,0.00,Wunderground v.1.15,2013-01-14 23:30:00,
2013-01-14 16:35:00,10.8,-4.2,30.49,North,349,2.0,2.0,50,0.00,,,0.00,Wunderground v.1.15,2013-01-14 23:35:00,
2013-01-14 16:40:00,10.5,-4.9,30.49,North,349,1.0,1.0,49,0.00,,,0.00,Wunderground v.1.15,2013-01-14 23:40:00,
2013-01-14 16:45:00,10.3,-4.3,30.49,North,349,1.0,1.0,51,0.00,,,0.00,Wunderground v.1.15,2013-01-14 23:45:00,
2013-01-14 16:50:00,10.1,-3.7,30.50,North,349,0.0,0.0,53,0.00,,,0.00,Wunderground v.1.15,2013-01-14 23:50:00,
2013-01-14 16:55:00,10.0,-3.8,30.50,North,349,0.0,0.0,53,0.00,,,0.00,Wunderground v.1.15,2013-01-14 23:55:00,
2013-01-14 17:00:00,10.0,-4.2,30.50,North,349,0.0,0.0,52,0.00,,,0.00,Wunderground v.1.15,2013-01-15 00:00:00,
2013-01-14 17:05:00,9.9,-3.5,30.50,North,349,0.0,9.0,54,0.00,,,0.00,Wunderground v.1.15,2013-01-15 00:05:00,
2013-01-14 17:10:00,9.6,-4.1,30.51,North,349,0.0,0.0,53,0.00,,,0.00,Wunderground v.1.15,2013-01-15 00:10:00,
2013-01-14 17:15:00,9.3,-4.4,30.51,North,349,0.0,0.0,53,0.00,,,0.00,Wunderground v.1.15,2013-01-15 00:15:00,
2013-01-14 17:20:00,8.7,-5.0,30.51,North,349,0.0,0.0,53,0.00,,,0.00,Wunderground v.1.15,2013-01-15 00:20:00,
2013-01-14 17:30:00,7.4,-5.0,30.52,North,349,0.0,0.0,56,0.00,,,0.00,Wunderground v.1.15,2013-01-15 00:30:00,
2013-01-14 17:40:00,6.5,-5.5,30.52,North,349,0.0,0.0,57,0.00,,,0.00,Wunderground v.1.15,2013-01-15 00:40:00,
2013-01-14 17:45:00,6.3,-5.3,30.53,North,349,0.0,0.0,58,0.00,,,0.00,Wunderground v.1.15,2013-01-15 00:45:00,
2013-01-14 17:50:00,5.9,-6.1,30.53,North,349,0.0,0.0,57,0.00,,,0.00,Wunderground v.1.15,2013-01-15 00:50:00,
2013-01-14 18:00:00,5.0,-5.9,30.53,North,349,0.0,6.0,60,0.00,,,0.00,Wunderground v.1.15,2013-01-15 01:00:00,
2013-01-14 18:05:00,4.7,-6.2,30.53,North,349,0.0,6.0,60,0.00,,,0.00,Wunderground v.1.15,2013-01-15 01:05:00,
2013-01-14 18:10:00,4.4,-6.4,30.53,North,349,0.0,6.0,60,0.00,,,0.00,Wunderground v.1.15,2013-01-15 01:10:00,
2013-01-14 18:15:00,4.1,-6.7,30.54,North,349,0.0,0.0,60,0.00,,,0.00,Wunderground v.1.15,2013-01-15 01:15:00,
2013-01-14 18:20:00,4.0,-6.1,30.54,North,349,0.0,0.0,62,0.00,,,0.00,Wunderground v.1.15,2013-01-15 01:20:00,
2013-01-14 18:25:00,3.8,-6.3,30.54,North,349,0.0,0.0,62,0.00,,,0.00,Wunderground v.1.15,2013-01-15 01:25:00,
2013-01-14 18:30:00,3.6,-6.5,30.54,North,349,0.0,0.0,62,0.00,,,0.00,Wunderground v.1.15,2013-01-15 01:30:00,
2013-01-14 18:35:00,3.6,-7.2,30.54,North,349,0.0,0.0,60,0.00,,,0.00,Wunderground v.1.15,2013-01-15 01:35:00,
2013-01-14 18:40:00,3.6,-6.9,30.55,North,350,0.0,0.0,61,0.00,,,0.00,Wunderground v.1.15,2013-01-15 01:40:00,
2013-01-14 18:45:00,3.5,-7.0,30.55,North,350,0.0,0.0,61,0.00,,,0.00,Wunderground v.1.15,2013-01-15 01:45:00,
2013-01-14 18:50:00,3.4,-7.0,30.55,North,349,0.0,0.0,61,0.00,,,0.00,Wunderground v.1.15,2013-01-15 01:50:00,
2013-01-14 18:55:00,3.2,-6.9,30.55,North,350,0.0,0.0,62,0.00,,,0.00,Wunderground v.1.15,2013-01-15 01:55:00,
2013-01-14 19:05:00,2.6,-6.8,30.56,North,350,0.0,2.0,64,0.00,,,0.00,Wunderground v.1.15,2013-01-15 02:05:00,
2013-01-14 19:10:00,2.3,-7.1,30.56,North,350,0.0,2.0,64,0.00,,,0.00,Wunderground v.1.15,2013-01-15 02:10:00,
2013-01-14 19:15:00,1.9,-7.5,30.56,North,350,0.0,1.0,64,0.00,,,0.00,Wunderground v.1.15,2013-01-15 02:15:00,
2013-01-14 19:20:00,1.5,-7.9,30.57,North,349,1.0,1.0,64,0.00,,,0.00,Wunderground v.1.15,2013-01-15 02:20:00,
2013-01-14 19:30:00,1.6,-7.5,30.57,North,350,0.0,0.0,65,0.00,,,0.00,Wunderground v.1.15,2013-01-15 02:30:00,
2013-01-14 19:35:00,1.8,-7.6,30.58,North,350,0.0,0.0,64,0.00,,,0.00,Wunderground v.1.15,2013-01-15 02:35:00,
2013-01-14 19:40:00,1.9,-7.2,30.58,North,349,0.0,0.0,65,0.00,,,0.00,Wunderground v.1.15,2013-01-15 02:40:00,
2013-01-14 19:45:00,1.9,-6.9,30.58,North,349,0.0,0.0,66,0.00,,,0.00,Wunderground v.1.15,2013-01-15 02:45:00,
2013-01-14 19:50:00,1.9,-7.5,30.58,North,350,0.0,2.0,64,0.00,,,0.00,Wunderground v.1.15,2013-01-15 02:50:00,
2013-01-14 19:55:00,1.7,-7.7,30.59,North,350,0.0,0.0,64,0.00,,,0.00,Wunderground v.1.15,2013-01-15 02:55:00,
2013-01-14 20:05:00,1.7,-6.7,30.59,North,350,0.0,3.0,67,0.00,,,0.00,Wunderground v.1.15,2013-01-15 03:05:00,
2013-01-14 20:10:00,1.7,-7.7,30.59,North,350,0.0,3.0,64,0.00,,,0.00,Wunderground v.1.15,2013-01-15 03:10:00,
2013-01-14 20:15:00,1.5,-7.9,30.59,North,350,0.0,1.0,64,0.00,,,0.00,Wunderground v.1.15,2013-01-15 03:15:00,
2013-01-14 20:20:00,1.4,-8.0,30.58,North,355,1.0,1.0,64,0.00,,,0.00,Wunderground v.1.15,2013-01-15 03:20:00,
2013-01-14 20:25:00,1.4,-7.6,30.59,North,355,1.0,1.0,65,0.00,,,0.00,Wunderground v.1.15,2013-01-15 03:25:00,
2013-01-14 20:30:00,1.7,-7.4,30.59,North,355,0.0,1.0,65,0.00,,,0.00,Wunderground v.1.15,2013-01-15 03:30:00,
2013-01-14 20:35:00,1.8,-6.6,30.59,North,355,0.0,0.0,67,0.00,,,0.00,Wunderground v.1.15,2013-01-15 03:35:00,
2013-01-14 20:40:00,1.9,-7.5,30.60,North,355,0.0,0.0,64,0.00,,,0.00,Wunderground v.1.15,2013-01-15 03:40:00,
2013-01-14 20:45:00,1.7,-8.0,30.60,North,355,0.0,2.0,63,0.00,,,0.00,Wunderground v.1.15,2013-01-15 03:45:00,
2013-01-14 20:50:00,1.3,-8.1,30.60,North,355,0.0,2.0,64,0.00,,,0.00,Wunderground v.1.15,2013-01-15 03:50:00,
2013-01-14 20:55:00,1.1,-7.9,30.60,North,355,0.0,1.0,65,0.00,,,0.00,Wunderground v.1.15,2013-01-15 03:55:00,
2013-01-14 21:05:00,0.8,-8.2,30.60,North,355,0.0,3.0,65,0.00,,,0.00,Wunderground v.1.15,2013-01-15 04:05:00,
2013-01-14 21:10:00,0.4,-8.6,30.60,North,355,0.0,3.0,65,0.00,,,0.00,Wunderground v.1.15,2013-01-15 04:10:00,
2013-01-14 21:15:00,0.2,-8.8,30.60,North,355,0.0,0.0,65,0.00,,,0.00,Wunderground v.1.15,2013-01-15 04:15:00,
2013-01-14 21:20:00,0.0,-8.4,30.60,North,355,0.0,0.0,67,0.00,,,0.00,Wunderground v.1.15,2013-01-15 04:20:00,
2013-01-14 21:25:00,-0.2,-8.9,30.60,ESE,113,1.0,1.0,66,0.00,,,0.00,Wunderground v.1.15,2013-01-15 04:25:00,
2013-01-14 21:30:00,-0.2,-8.9,30.60,ESE,114,2.0,2.0,66,0.00,,,0.00,Wunderground v.1.15,2013-01-15 04:30:00,
2013-01-14 21:35:00,-0.1,-8.8,30.60,ESE,113,2.0,2.0,66,0.00,,,0.00,Wunderground v.1.15,2013-01-15 04:35:00,
2013-01-14 21:40:00,0.1,-8.6,30.61,ESE,115,2.0,2.0,66,0.00,,,0.00,Wunderground v.1.15,2013-01-15 04:40:00,
2013-01-14 21:50:00,0.1,-8.9,30.61,ESE,117,1.0,3.0,65,0.00,,,0.00,Wunderground v.1.15,2013-01-15 04:50:00,
2013-01-14 21:55:00,-0.1,-8.8,30.61,ESE,117,1.0,1.0,66,0.00,,,0.00,Wunderground v.1.15,2013-01-15 04:55:00,
2013-01-14 22:05:00,-0.8,-9.1,30.61,ESE,117,0.0,4.0,67,0.00,,,0.00,Wunderground v.1.15,2013-01-15 05:05:00,
2013-01-14 22:10:00,-0.9,-8.6,30.61,ESE,116,0.0,4.0,69,0.00,,,0.00,Wunderground v.1.15,2013-01-15 05:10:00,
2013-01-14 22:15:00,-0.8,-8.5,30.61,ESE,116,0.0,0.0,69,0.00,,,0.00,Wunderground v.1.15,2013-01-15 05:15:00,
2013-01-14 22:20:00,-0.5,-8.0,30.61,ESE,116,0.0,0.0,70,0.00,,,0.00,Wunderground v.1.15,2013-01-15 05:20:00,
2013-01-14 22:30:00,-0.8,-9.1,30.62,ESE,115,0.0,0.0,67,0.00,,,0.00,Wunderground v.1.15,2013-01-15 05:30:00,
2013-01-14 22:40:00,-0.4,-8.8,30.62,ESE,116,0.0,0.0,67,0.00,,,0.00,Wunderground v.1.15,2013-01-15 05:40:00,
2013-01-14 22:45:00,-0.9,-9.5,30.62,ESE,116,0.0,0.0,66,0.00,,,0.00,Wunderground v.1.15,2013-01-15 05:45:00,
2013-01-14 22:50:00,-1.4,-9.7,30.63,ESE,116,0.0,0.0,67,0.00,,,0.00,Wunderground v.1.15,2013-01-15 05:50:00,
2013-01-14 22:55:00,-1.8,-9.2,30.63,ESE,115,0.0,0.0,70,0.00,,,0.00,Wunderground v.1.15,2013-01-15 05:55:00,
2013-01-14 23:05:00,-2.7,-9.8,30.63,ESE,115,0.0,10.0,71,0.00,,,0.00,Wunderground v.1.15,2013-01-15 06:05:00,
2013-01-14 23:10:00,-2.3,-8.3,30.64,ESE,116,0.0,10.0,75,0.00,,,0.00,Wunderground v.1.15,2013-01-15 06:10:00,
2013-01-14 23:15:00,-2.3,-9.1,30.65,ESE,116,0.0,0.0,72,0.00,,,0.00,Wunderground v.1.15,2013-01-15 06:15:00,
2013-01-14 23:20:00,-2.7,-10.7,30.65,ESE,116,0.0,0.0,68,0.00,,,0.00,Wunderground v.1.15,2013-01-15 06:20:00,
2013-01-14 23:30:00,-4.0,-11.3,30.66,ESE,116,0.0,0.0,70,0.00,,,0.00,Wunderground v.1.15,2013-01-15 06:30:00,
2013-01-14 23:40:00,-4.7,-11.2,30.67,ESE,116,0.0,0.0,73,0.00,,,0.00,Wunderground v.1.15,2013-01-15 06:40:00,
2013-01-14 23:45:00,-5.0,-11.7,30.67,ESE,116,0.0,0.0,72,0.00,,,0.00,Wunderground v.1.15,2013-01-15 06:45:00,
2013-01-14 23:50:00,-5.3,-12.0,30.67,ESE,115,0.0,0.0,72,0.00,,,0.00,Wunderground v.1.15,2013-01-15 06:50:00,
2013-01-14 23:55:00,-5.7,-12.4,30.67,ESE,115,0.0,0.0,72,0.00,,,0.00,Wunderground v.1.15,2013-01-15 06:55:00,